sensor_id;sensor_type;location;lat;lon;timestamp;P1;durP1;ratioP1;P2;durP2;ratioP2
70920;SDS011;58572;48.110;19.838;2023-06-19T00:01:10;5.07;;;3.38;;
70920;SDS011;58572;48.110;19.838;2023-06-19T00:03:37;4.43;;;3.10;;
70920;SDS011;58572;48.110;19.838;2023-06-19T00:06:05;4.25;;;3.10;;
70920;SDS011;58572;48.110;19.838;2023-06-19T00:08:32;4.15;;;2.72;;
70920;SDS011;58572;48.110;19.838;2023-06-19T00:11:00;4.32;;;2.70;;
70920;SDS011;58572;48.110;19.838;2023-06-19T00:13:28;5.70;;;3.10;;
70920;SDS011;58572;48.110;19.838;2023-06-19T00:15:56;5.32;;;2.38;;
70920;SDS011;58572;48.110;19.838;2023-06-19T00:18:26;5.32;;;3.42;;
70920;SDS011;58572;48.110;19.838;2023-06-19T00:20:53;5.43;;;2.83;;
70920;SDS011;58572;48.110;19.838;2023-06-19T00:23:21;5.82;;;3.10;;
70920;SDS011;58572;48.110;19.838;2023-06-19T00:25:48;4.75;;;2.67;;
70920;SDS011;58572;48.110;19.838;2023-06-19T00:28:15;4.72;;;2.70;;
70920;SDS011;58572;48.110;19.838;2023-06-19T00:30:45;5.03;;;2.97;;
70920;SDS011;58572;48.110;19.838;2023-06-19T00:35:40;5.72;;;3.10;;
70920;SDS011;58572;48.110;19.838;2023-06-19T00:38:08;4.20;;;2.58;;
70920;SDS011;58572;48.110;19.838;2023-06-19T00:40:35;4.78;;;2.80;;
70920;SDS011;58572;48.110;19.838;2023-06-19T00:43:03;4.90;;;3.00;;
70920;SDS011;58572;48.110;19.838;2023-06-19T00:45:30;5.25;;;3.42;;
70920;SDS011;58572;48.110;19.838;2023-06-19T00:47:57;4.88;;;3.33;;
70920;SDS011;58572;48.110;19.838;2023-06-19T00:50:27;6.18;;;3.33;;
70920;SDS011;58572;48.110;19.838;2023-06-19T00:52:56;7.70;;;3.38;;
70920;SDS011;58572;48.110;19.838;2023-06-19T00:55:24;4.80;;;2.90;;
70920;SDS011;58572;48.110;19.838;2023-06-19T00:57:52;8.70;;;3.20;;
70920;SDS011;58572;48.110;19.838;2023-06-19T01:00:19;5.88;;;2.95;;
70920;SDS011;58572;48.110;19.838;2023-06-19T01:02:46;5.47;;;3.20;;
70920;SDS011;58572;48.110;19.838;2023-06-19T01:07:52;5.22;;;2.80;;
70920;SDS011;58572;48.110;19.838;2023-06-19T01:10:26;4.85;;;2.88;;
70920;SDS011;58572;48.110;19.838;2023-06-19T01:12:56;6.15;;;3.53;;
70920;SDS011;58572;48.110;19.838;2023-06-19T01:15:25;5.95;;;3.17;;
70920;SDS011;58572;48.110;19.838;2023-06-19T01:17:53;8.45;;;3.30;;
70920;SDS011;58572;48.110;19.838;2023-06-19T01:20:21;5.50;;;3.38;;
70920;SDS011;58572;48.110;19.838;2023-06-19T01:25:21;5.07;;;3.10;;
70920;SDS011;58572;48.110;19.838;2023-06-19T01:27:49;5.68;;;3.47;;
70920;SDS011;58572;48.110;19.838;2023-06-19T01:30:17;6.70;;;2.97;;
70920;SDS011;58572;48.110;19.838;2023-06-19T01:32:47;5.45;;;3.70;;
70920;SDS011;58572;48.110;19.838;2023-06-19T01:35:21;5.95;;;3.60;;
70920;SDS011;58572;48.110;19.838;2023-06-19T01:37:55;5.80;;;3.80;;
70920;SDS011;58572;48.110;19.838;2023-06-19T01:40:24;5.68;;;3.83;;
70920;SDS011;58572;48.110;19.838;2023-06-19T01:42:53;6.47;;;4.13;;
70920;SDS011;58572;48.110;19.838;2023-06-19T01:45:20;5.68;;;3.80;;
70920;SDS011;58572;48.110;19.838;2023-06-19T01:47:48;6.82;;;3.95;;
70920;SDS011;58572;48.110;19.838;2023-06-19T01:50:15;6.03;;;4.28;;
70920;SDS011;58572;48.110;19.838;2023-06-19T01:52:42;7.40;;;3.97;;
70920;SDS011;58572;48.110;19.838;2023-06-19T01:55:11;6.15;;;4.00;;
70920;SDS011;58572;48.110;19.838;2023-06-19T01:57:38;6.50;;;3.72;;
70920;SDS011;58572;48.110;19.838;2023-06-19T02:00:05;5.45;;;3.90;;
70920;SDS011;58572;48.110;19.838;2023-06-19T02:02:35;6.90;;;4.03;;
70920;SDS011;58572;48.110;19.838;2023-06-19T02:05:02;5.68;;;3.85;;
70920;SDS011;58572;48.110;19.838;2023-06-19T02:09:56;6.28;;;3.97;;
70920;SDS011;58572;48.110;19.838;2023-06-19T02:12:25;5.50;;;3.72;;
70920;SDS011;58572;48.110;19.838;2023-06-19T02:14:52;6.10;;;4.10;;
70920;SDS011;58572;48.110;19.838;2023-06-19T02:17:20;7.70;;;4.60;;
70920;SDS011;58572;48.110;19.838;2023-06-19T02:19:47;6.65;;;4.25;;
70920;SDS011;58572;48.110;19.838;2023-06-19T02:24:41;7.45;;;4.15;;
70920;SDS011;58572;48.110;19.838;2023-06-19T02:27:09;7.45;;;4.78;;
70920;SDS011;58572;48.110;19.838;2023-06-19T02:29:38;7.22;;;4.15;;
70920;SDS011;58572;48.110;19.838;2023-06-19T02:32:05;6.53;;;3.80;;
70920;SDS011;58572;48.110;19.838;2023-06-19T02:34:33;5.95;;;4.00;;
70920;SDS011;58572;48.110;19.838;2023-06-19T02:37:00;5.55;;;4.03;;
70920;SDS011;58572;48.110;19.838;2023-06-19T02:39:27;6.85;;;4.35;;
70920;SDS011;58572;48.110;19.838;2023-06-19T02:41:55;5.93;;;4.22;;
70920;SDS011;58572;48.110;19.838;2023-06-19T02:44:22;6.97;;;4.40;;
70920;SDS011;58572;48.110;19.838;2023-06-19T02:46:51;5.25;;;3.80;;
70920;SDS011;58572;48.110;19.838;2023-06-19T02:49:18;6.30;;;3.90;;
70920;SDS011;58572;48.110;19.838;2023-06-19T02:51:45;6.82;;;4.22;;
70920;SDS011;58572;48.110;19.838;2023-06-19T02:54:13;6.63;;;4.80;;
70920;SDS011;58572;48.110;19.838;2023-06-19T02:56:40;6.18;;;3.95;;
70920;SDS011;58572;48.110;19.838;2023-06-19T02:59:07;6.78;;;4.30;;
70920;SDS011;58572;48.110;19.838;2023-06-19T03:01:34;7.18;;;4.57;;
70920;SDS011;58572;48.110;19.838;2023-06-19T03:04:03;6.95;;;4.25;;
70920;SDS011;58572;48.110;19.838;2023-06-19T03:06:30;6.30;;;4.00;;
70920;SDS011;58572;48.110;19.838;2023-06-19T03:08:58;6.43;;;4.90;;
70920;SDS011;58572;48.110;19.838;2023-06-19T03:11:25;7.80;;;4.88;;
70920;SDS011;58572;48.110;19.838;2023-06-19T03:13:53;7.93;;;4.38;;
70920;SDS011;58572;48.110;19.838;2023-06-19T03:16:21;7.22;;;4.35;;
70920;SDS011;58572;48.110;19.838;2023-06-19T03:18:48;6.00;;;4.13;;
70920;SDS011;58572;48.110;19.838;2023-06-19T03:21:16;6.35;;;4.25;;
70920;SDS011;58572;48.110;19.838;2023-06-19T03:23:44;6.25;;;4.18;;
70920;SDS011;58572;48.110;19.838;2023-06-19T03:26:12;8.45;;;4.80;;
70920;SDS011;58572;48.110;19.838;2023-06-19T03:28:39;6.40;;;4.03;;
70920;SDS011;58572;48.110;19.838;2023-06-19T03:31:07;6.22;;;4.07;;
70920;SDS011;58572;48.110;19.838;2023-06-19T03:33:34;6.50;;;4.55;;
70920;SDS011;58572;48.110;19.838;2023-06-19T03:36:01;8.50;;;5.00;;
70920;SDS011;58572;48.110;19.838;2023-06-19T03:38:30;8.00;;;4.45;;
70920;SDS011;58572;48.110;19.838;2023-06-19T03:40:57;6.07;;;4.28;;
70920;SDS011;58572;48.110;19.838;2023-06-19T03:43:24;6.07;;;4.20;;
70920;SDS011;58572;48.110;19.838;2023-06-19T03:48:18;7.13;;;4.43;;
70920;SDS011;58572;48.110;19.838;2023-06-19T03:50:45;6.47;;;4.63;;
70920;SDS011;58572;48.110;19.838;2023-06-19T03:53:13;7.63;;;3.97;;
70920;SDS011;58572;48.110;19.838;2023-06-19T03:55:42;9.93;;;4.30;;
70920;SDS011;58572;48.110;19.838;2023-06-19T03:58:09;7.70;;;4.45;;
70920;SDS011;58572;48.110;19.838;2023-06-19T04:00:36;7.40;;;4.55;;
70920;SDS011;58572;48.110;19.838;2023-06-19T04:03:03;6.43;;;4.45;;
70920;SDS011;58572;48.110;19.838;2023-06-19T04:05:30;6.93;;;4.40;;
70920;SDS011;58572;48.110;19.838;2023-06-19T04:07:58;6.72;;;4.53;;
70920;SDS011;58572;48.110;19.838;2023-06-19T04:10:25;6.85;;;4.78;;
70920;SDS011;58572;48.110;19.838;2023-06-19T04:12:54;7.47;;;4.80;;
70920;SDS011;58572;48.110;19.838;2023-06-19T04:15:21;6.15;;;4.30;;
70920;SDS011;58572;48.110;19.838;2023-06-19T04:17:48;7.60;;;5.03;;
70920;SDS011;58572;48.110;19.838;2023-06-19T04:20:16;7.38;;;4.65;;
70920;SDS011;58572;48.110;19.838;2023-06-19T04:22:43;6.88;;;4.75;;
70920;SDS011;58572;48.110;19.838;2023-06-19T04:25:10;7.03;;;4.55;;
70920;SDS011;58572;48.110;19.838;2023-06-19T04:30:07;6.13;;;4.53;;
70920;SDS011;58572;48.110;19.838;2023-06-19T04:32:34;6.55;;;5.50;;
70920;SDS011;58572;48.110;19.838;2023-06-19T04:37:29;8.45;;;5.55;;
70920;SDS011;58572;48.110;19.838;2023-06-19T04:39:56;7.50;;;5.45;;
70920;SDS011;58572;48.110;19.838;2023-06-19T04:42:24;7.57;;;5.47;;
70920;SDS011;58572;48.110;19.838;2023-06-19T04:44:51;8.10;;;5.32;;
70920;SDS011;58572;48.110;19.838;2023-06-19T04:47:22;6.88;;;5.32;;
70920;SDS011;58572;48.110;19.838;2023-06-19T04:49:49;9.02;;;5.30;;
70920;SDS011;58572;48.110;19.838;2023-06-19T04:52:17;7.10;;;5.32;;
70920;SDS011;58572;48.110;19.838;2023-06-19T04:54:44;8.98;;;6.60;;
70920;SDS011;58572;48.110;19.838;2023-06-19T04:57:13;7.38;;;6.07;;
70920;SDS011;58572;48.110;19.838;2023-06-19T04:59:41;8.30;;;5.43;;
70920;SDS011;58572;48.110;19.838;2023-06-19T05:02:09;7.85;;;5.40;;
70920;SDS011;58572;48.110;19.838;2023-06-19T05:04:37;7.30;;;5.20;;
70920;SDS011;58572;48.110;19.838;2023-06-19T05:07:08;7.43;;;5.03;;
70920;SDS011;58572;48.110;19.838;2023-06-19T05:09:35;8.70;;;5.60;;
70920;SDS011;58572;48.110;19.838;2023-06-19T05:12:03;6.95;;;4.72;;
70920;SDS011;58572;48.110;19.838;2023-06-19T05:14:30;7.07;;;4.80;;
70920;SDS011;58572;48.110;19.838;2023-06-19T05:16:57;8.63;;;5.47;;
70920;SDS011;58572;48.110;19.838;2023-06-19T05:19:25;9.45;;;5.20;;
70920;SDS011;58572;48.110;19.838;2023-06-19T05:21:53;8.35;;;5.55;;
70920;SDS011;58572;48.110;19.838;2023-06-19T05:24:20;8.38;;;6.00;;
70920;SDS011;58572;48.110;19.838;2023-06-19T05:26:48;7.57;;;5.53;;
70920;SDS011;58572;48.110;19.838;2023-06-19T05:29:15;8.40;;;5.85;;
70920;SDS011;58572;48.110;19.838;2023-06-19T05:31:42;9.45;;;6.60;;
70920;SDS011;58572;48.110;19.838;2023-06-19T05:34:09;8.77;;;6.43;;
70920;SDS011;58572;48.110;19.838;2023-06-19T05:36:38;9.40;;;6.63;;
70920;SDS011;58572;48.110;19.838;2023-06-19T05:39:06;8.35;;;6.13;;
70920;SDS011;58572;48.110;19.838;2023-06-19T05:41:34;8.13;;;6.25;;
70920;SDS011;58572;48.110;19.838;2023-06-19T05:44:02;10.55;;;7.03;;
70920;SDS011;58572;48.110;19.838;2023-06-19T05:46:29;8.80;;;6.80;;
70920;SDS011;58572;48.110;19.838;2023-06-19T05:48:56;8.50;;;6.00;;
70920;SDS011;58572;48.110;19.838;2023-06-19T05:51:23;13.75;;;7.00;;
70920;SDS011;58572;48.110;19.838;2023-06-19T05:53:51;10.98;;;6.95;;
70920;SDS011;58572;48.110;19.838;2023-06-19T05:56:19;8.80;;;6.30;;
70920;SDS011;58572;48.110;19.838;2023-06-19T05:58:46;10.65;;;7.20;;
70920;SDS011;58572;48.110;19.838;2023-06-19T06:01:13;8.88;;;6.63;;
70920;SDS011;58572;48.110;19.838;2023-06-19T06:03:42;9.15;;;6.63;;
70920;SDS011;58572;48.110;19.838;2023-06-19T06:06:10;8.75;;;6.57;;
70920;SDS011;58572;48.110;19.838;2023-06-19T06:08:37;9.73;;;7.18;;
70920;SDS011;58572;48.110;19.838;2023-06-19T06:11:04;8.25;;;6.47;;
70920;SDS011;58572;48.110;19.838;2023-06-19T06:13:33;11.15;;;7.20;;
70920;SDS011;58572;48.110;19.838;2023-06-19T06:16:01;11.32;;;7.28;;
70920;SDS011;58572;48.110;19.838;2023-06-19T06:18:28;10.10;;;6.97;;
70920;SDS011;58572;48.110;19.838;2023-06-19T06:20:55;8.75;;;6.75;;
70920;SDS011;58572;48.110;19.838;2023-06-19T06:23:24;9.98;;;7.68;;
70920;SDS011;58572;48.110;19.838;2023-06-19T06:25:51;8.70;;;6.60;;
70920;SDS011;58572;48.110;19.838;2023-06-19T06:28:19;10.55;;;7.25;;
70920;SDS011;58572;48.110;19.838;2023-06-19T06:30:48;10.27;;;6.65;;
70920;SDS011;58572;48.110;19.838;2023-06-19T06:33:18;8.75;;;6.70;;
70920;SDS011;58572;48.110;19.838;2023-06-19T06:35:45;9.25;;;6.85;;
70920;SDS011;58572;48.110;19.838;2023-06-19T06:38:12;10.75;;;7.40;;
70920;SDS011;58572;48.110;19.838;2023-06-19T06:43:08;9.43;;;6.47;;
70920;SDS011;58572;48.110;19.838;2023-06-19T06:45:35;9.65;;;7.22;;
70920;SDS011;58572;48.110;19.838;2023-06-19T06:48:05;10.55;;;7.47;;
70920;SDS011;58572;48.110;19.838;2023-06-19T06:50:33;9.95;;;7.35;;
70920;SDS011;58572;48.110;19.838;2023-06-19T06:53:00;12.77;;;7.28;;
70920;SDS011;58572;48.110;19.838;2023-06-19T06:55:28;10.23;;;6.78;;
70920;SDS011;58572;48.110;19.838;2023-06-19T06:57:55;11.23;;;7.00;;
70920;SDS011;58572;48.110;19.838;2023-06-19T07:00:22;8.82;;;7.22;;
70920;SDS011;58572;48.110;19.838;2023-06-19T07:02:49;10.05;;;6.55;;
70920;SDS011;58572;48.110;19.838;2023-06-19T07:07:45;9.63;;;6.28;;
70920;SDS011;58572;48.110;19.838;2023-06-19T07:10:12;9.13;;;6.28;;
70920;SDS011;58572;48.110;19.838;2023-06-19T07:15:13;10.13;;;6.82;;
70920;SDS011;58572;48.110;19.838;2023-06-19T07:17:42;8.88;;;6.97;;
70920;SDS011;58572;48.110;19.838;2023-06-19T07:20:11;9.70;;;6.78;;
70920;SDS011;58572;48.110;19.838;2023-06-19T07:22:40;11.75;;;6.90;;
70920;SDS011;58572;48.110;19.838;2023-06-19T07:25:09;9.75;;;6.28;;
70920;SDS011;58572;48.110;19.838;2023-06-19T07:27:37;9.23;;;6.63;;
70920;SDS011;58572;48.110;19.838;2023-06-19T07:30:05;8.68;;;6.68;;
70920;SDS011;58572;48.110;19.838;2023-06-19T07:32:33;8.13;;;6.22;;
70920;SDS011;58572;48.110;19.838;2023-06-19T07:35:01;7.78;;;6.38;;
70920;SDS011;58572;48.110;19.838;2023-06-19T07:37:28;8.55;;;6.43;;
70920;SDS011;58572;48.110;19.838;2023-06-19T07:39:57;10.07;;;7.28;;
70920;SDS011;58572;48.110;19.838;2023-06-19T07:42:24;9.95;;;6.50;;
70920;SDS011;58572;48.110;19.838;2023-06-19T07:44:52;12.48;;;7.22;;
70920;SDS011;58572;48.110;19.838;2023-06-19T07:47:20;9.15;;;6.97;;
70920;SDS011;58572;48.110;19.838;2023-06-19T07:49:47;8.20;;;6.40;;
70920;SDS011;58572;48.110;19.838;2023-06-19T07:52:14;10.60;;;6.43;;
70920;SDS011;58572;48.110;19.838;2023-06-19T07:57:16;7.50;;;5.80;;
70920;SDS011;58572;48.110;19.838;2023-06-19T07:59:43;17.30;;;11.27;;
70920;SDS011;58572;48.110;19.838;2023-06-19T08:02:11;32.97;;;20.77;;
70920;SDS011;58572;48.110;19.838;2023-06-19T08:04:38;16.73;;;12.52;;
70920;SDS011;58572;48.110;19.838;2023-06-19T08:07:05;9.75;;;7.35;;
70920;SDS011;58572;48.110;19.838;2023-06-19T08:09:32;9.50;;;6.35;;
70920;SDS011;58572;48.110;19.838;2023-06-19T08:12:01;8.52;;;6.05;;
70920;SDS011;58572;48.110;19.838;2023-06-19T08:14:30;10.15;;;6.20;;
70920;SDS011;58572;48.110;19.838;2023-06-19T08:16:57;9.50;;;5.85;;
70920;SDS011;58572;48.110;19.838;2023-06-19T08:19:24;7.28;;;4.70;;
70920;SDS011;58572;48.110;19.838;2023-06-19T08:21:51;7.70;;;4.10;;
70920;SDS011;58572;48.110;19.838;2023-06-19T08:24:19;5.43;;;3.80;;
70920;SDS011;58572;48.110;19.838;2023-06-19T08:26:46;6.80;;;4.35;;
70920;SDS011;58572;48.110;19.838;2023-06-19T08:29:16;6.82;;;4.05;;
70920;SDS011;58572;48.110;19.838;2023-06-19T08:31:45;6.63;;;4.43;;
70920;SDS011;58572;48.110;19.838;2023-06-19T08:34:12;5.35;;;3.97;;
70920;SDS011;58572;48.110;19.838;2023-06-19T08:36:39;6.18;;;4.47;;
70920;SDS011;58572;48.110;19.838;2023-06-19T08:39:07;5.57;;;4.07;;
70920;SDS011;58572;48.110;19.838;2023-06-19T08:41:34;6.97;;;4.22;;
70920;SDS011;58572;48.110;19.838;2023-06-19T08:44:03;7.43;;;3.85;;
70920;SDS011;58572;48.110;19.838;2023-06-19T08:46:30;6.82;;;4.03;;
70920;SDS011;58572;48.110;19.838;2023-06-19T08:51:26;5.90;;;4.35;;
70920;SDS011;58572;48.110;19.838;2023-06-19T08:53:56;7.25;;;4.00;;
70920;SDS011;58572;48.110;19.838;2023-06-19T08:56:30;6.53;;;4.35;;
70920;SDS011;58572;48.110;19.838;2023-06-19T08:59:07;6.13;;;4.28;;
70920;SDS011;58572;48.110;19.838;2023-06-19T09:01:35;6.55;;;4.18;;
70920;SDS011;58572;48.110;19.838;2023-06-19T09:04:11;6.40;;;3.72;;
70920;SDS011;58572;48.110;19.838;2023-06-19T09:06:48;5.97;;;3.65;;
70920;SDS011;58572;48.110;19.838;2023-06-19T09:09:16;5.50;;;4.03;;
70920;SDS011;58572;48.110;19.838;2023-06-19T09:11:43;5.97;;;4.25;;
70920;SDS011;58572;48.110;19.838;2023-06-19T09:14:24;9.27;;;4.30;;
70920;SDS011;58572;48.110;19.838;2023-06-19T09:16:57;5.78;;;3.90;;
70920;SDS011;58572;48.110;19.838;2023-06-19T09:19:26;6.30;;;4.40;;
70920;SDS011;58572;48.110;19.838;2023-06-19T09:21:53;6.00;;;4.18;;
70920;SDS011;58572;48.110;19.838;2023-06-19T09:24:32;6.50;;;4.53;;
70920;SDS011;58572;48.110;19.838;2023-06-19T09:27:07;6.50;;;3.90;;
70920;SDS011;58572;48.110;19.838;2023-06-19T09:29:38;7.70;;;4.18;;
70920;SDS011;58572;48.110;19.838;2023-06-19T09:32:17;5.80;;;4.05;;
70920;SDS011;58572;48.110;19.838;2023-06-19T09:34:47;5.10;;;3.70;;
70920;SDS011;58572;48.110;19.838;2023-06-19T09:37:16;5.72;;;4.30;;
70920;SDS011;58572;48.110;19.838;2023-06-19T09:39:49;5.65;;;3.92;;
70920;SDS011;58572;48.110;19.838;2023-06-19T09:42:20;6.35;;;4.28;;
70920;SDS011;58572;48.110;19.838;2023-06-19T09:44:53;7.97;;;4.13;;
70920;SDS011;58572;48.110;19.838;2023-06-19T09:47:25;7.28;;;4.28;;
70920;SDS011;58572;48.110;19.838;2023-06-19T09:49:57;5.45;;;3.78;;
70920;SDS011;58572;48.110;19.838;2023-06-19T09:52:26;6.10;;;3.85;;
70920;SDS011;58572;48.110;19.838;2023-06-19T09:57:21;6.05;;;4.43;;
70920;SDS011;58572;48.110;19.838;2023-06-19T10:02:18;6.40;;;4.30;;
70920;SDS011;58572;48.110;19.838;2023-06-19T10:04:50;6.95;;;4.40;;
70920;SDS011;58572;48.110;19.838;2023-06-19T10:07:22;5.97;;;4.03;;
70920;SDS011;58572;48.110;19.838;2023-06-19T10:09:57;6.15;;;4.72;;
70920;SDS011;58572;48.110;19.838;2023-06-19T10:12:35;6.05;;;4.20;;
70920;SDS011;58572;48.110;19.838;2023-06-19T10:15:10;6.10;;;3.65;;
70920;SDS011;58572;48.110;19.838;2023-06-19T10:17:43;5.75;;;4.05;;
70920;SDS011;58572;48.110;19.838;2023-06-19T10:23:02;5.80;;;4.22;;
70920;SDS011;58572;48.110;19.838;2023-06-19T10:25:32;7.38;;;4.70;;
70920;SDS011;58572;48.110;19.838;2023-06-19T10:28:00;5.78;;;4.22;;
70920;SDS011;58572;48.110;19.838;2023-06-19T10:30:31;5.60;;;3.90;;
70920;SDS011;58572;48.110;19.838;2023-06-19T10:32:59;6.32;;;3.92;;
70920;SDS011;58572;48.110;19.838;2023-06-19T10:35:36;6.70;;;4.18;;
70920;SDS011;58572;48.110;19.838;2023-06-19T10:38:07;7.05;;;4.03;;
70920;SDS011;58572;48.110;19.838;2023-06-19T10:40:36;7.55;;;4.55;;
70920;SDS011;58572;48.110;19.838;2023-06-19T10:43:03;7.82;;;4.05;;
70920;SDS011;58572;48.110;19.838;2023-06-19T10:45:31;7.03;;;4.32;;
70920;SDS011;58572;48.110;19.838;2023-06-19T10:48:00;5.95;;;3.80;;
70920;SDS011;58572;48.110;19.838;2023-06-19T10:50:29;5.57;;;3.92;;
70920;SDS011;58572;48.110;19.838;2023-06-19T10:52:56;5.45;;;3.92;;
70920;SDS011;58572;48.110;19.838;2023-06-19T10:57:52;6.82;;;4.55;;
70920;SDS011;58572;48.110;19.838;2023-06-19T11:00:23;7.97;;;3.75;;
70920;SDS011;58572;48.110;19.838;2023-06-19T11:02:51;6.30;;;4.10;;
70920;SDS011;58572;48.110;19.838;2023-06-19T11:05:22;5.82;;;4.40;;
70920;SDS011;58572;48.110;19.838;2023-06-19T11:07:50;5.57;;;3.72;;
70920;SDS011;58572;48.110;19.838;2023-06-19T11:10:19;7.63;;;4.35;;
70920;SDS011;58572;48.110;19.838;2023-06-19T11:12:49;5.78;;;4.00;;
70920;SDS011;58572;48.110;19.838;2023-06-19T11:15:16;4.97;;;3.92;;
70920;SDS011;58572;48.110;19.838;2023-06-19T11:20:11;6.00;;;3.95;;
70920;SDS011;58572;48.110;19.838;2023-06-19T11:22:40;5.70;;;3.97;;
70920;SDS011;58572;48.110;19.838;2023-06-19T11:25:08;6.70;;;4.13;;
70920;SDS011;58572;48.110;19.838;2023-06-19T11:27:39;6.22;;;4.00;;
70920;SDS011;58572;48.110;19.838;2023-06-19T11:30:08;5.57;;;3.90;;
70920;SDS011;58572;48.110;19.838;2023-06-19T11:32:36;5.97;;;4.00;;
70920;SDS011;58572;48.110;19.838;2023-06-19T11:35:08;5.50;;;3.78;;
70920;SDS011;58572;48.110;19.838;2023-06-19T11:37:36;5.65;;;4.03;;
70920;SDS011;58572;48.110;19.838;2023-06-19T11:40:06;7.47;;;4.57;;
70920;SDS011;58572;48.110;19.838;2023-06-19T11:42:51;5.70;;;4.03;;
70920;SDS011;58572;48.110;19.838;2023-06-19T11:45:20;6.25;;;3.63;;
70920;SDS011;58572;48.110;19.838;2023-06-19T11:47:49;5.57;;;3.78;;
70920;SDS011;58572;48.110;19.838;2023-06-19T11:50:16;5.95;;;3.90;;
70920;SDS011;58572;48.110;19.838;2023-06-19T11:52:44;6.25;;;3.55;;
70920;SDS011;58572;48.110;19.838;2023-06-19T11:55:13;5.60;;;3.85;;
70920;SDS011;58572;48.110;19.838;2023-06-19T11:57:41;5.90;;;4.05;;
70920;SDS011;58572;48.110;19.838;2023-06-19T12:00:15;6.78;;;4.20;;
70920;SDS011;58572;48.110;19.838;2023-06-19T12:02:45;9.30;;;4.22;;
70920;SDS011;58572;48.110;19.838;2023-06-19T12:05:13;6.25;;;3.78;;
70920;SDS011;58572;48.110;19.838;2023-06-19T12:07:40;6.65;;;4.28;;
70920;SDS011;58572;48.110;19.838;2023-06-19T12:10:08;5.57;;;3.65;;
70920;SDS011;58572;48.110;19.838;2023-06-19T12:12:37;6.28;;;4.18;;
70920;SDS011;58572;48.110;19.838;2023-06-19T12:15:05;7.93;;;4.50;;
70920;SDS011;58572;48.110;19.838;2023-06-19T12:17:33;5.13;;;3.65;;
70920;SDS011;58572;48.110;19.838;2023-06-19T12:20:02;6.55;;;3.58;;
70920;SDS011;58572;48.110;19.838;2023-06-19T12:22:35;5.05;;;3.47;;
70920;SDS011;58572;48.110;19.838;2023-06-19T12:25:08;5.38;;;3.53;;
70920;SDS011;58572;48.110;19.838;2023-06-19T12:27:46;5.43;;;3.63;;
70920;SDS011;58572;48.110;19.838;2023-06-19T12:30:20;6.93;;;3.63;;
70920;SDS011;58572;48.110;19.838;2023-06-19T12:32:55;6.72;;;3.90;;
70920;SDS011;58572;48.110;19.838;2023-06-19T12:35:29;5.97;;;4.07;;
70920;SDS011;58572;48.110;19.838;2023-06-19T12:38:01;5.47;;;3.88;;
70920;SDS011;58572;48.110;19.838;2023-06-19T12:40:35;5.68;;;3.67;;
70920;SDS011;58572;48.110;19.838;2023-06-19T12:43:11;5.13;;;3.50;;
70920;SDS011;58572;48.110;19.838;2023-06-19T12:45:47;7.28;;;3.75;;
70920;SDS011;58572;48.110;19.838;2023-06-19T12:48:15;5.90;;;3.85;;
70920;SDS011;58572;48.110;19.838;2023-06-19T12:50:44;5.80;;;3.90;;
70920;SDS011;58572;48.110;19.838;2023-06-19T12:53:11;5.03;;;3.55;;
70920;SDS011;58572;48.110;19.838;2023-06-19T12:55:40;6.10;;;3.97;;
70920;SDS011;58572;48.110;19.838;2023-06-19T12:58:08;5.20;;;3.58;;
70920;SDS011;58572;48.110;19.838;2023-06-19T13:00:35;5.70;;;4.00;;
70920;SDS011;58572;48.110;19.838;2023-06-19T13:03:03;5.47;;;3.78;;
70920;SDS011;58572;48.110;19.838;2023-06-19T13:07:58;5.90;;;3.83;;
70920;SDS011;58572;48.110;19.838;2023-06-19T13:10:25;6.47;;;4.35;;
70920;SDS011;58572;48.110;19.838;2023-06-19T13:15:19;5.60;;;3.50;;
70920;SDS011;58572;48.110;19.838;2023-06-19T13:17:47;5.70;;;4.00;;
70920;SDS011;58572;48.110;19.838;2023-06-19T13:22:40;6.63;;;4.35;;
70920;SDS011;58572;48.110;19.838;2023-06-19T13:25:09;6.05;;;3.88;;
70920;SDS011;58572;48.110;19.838;2023-06-19T13:27:37;6.75;;;3.85;;
70920;SDS011;58572;48.110;19.838;2023-06-19T13:30:04;5.25;;;3.63;;
70920;SDS011;58572;48.110;19.838;2023-06-19T13:32:33;7.13;;;4.57;;
70920;SDS011;58572;48.110;19.838;2023-06-19T13:35:00;6.40;;;4.05;;
70920;SDS011;58572;48.110;19.838;2023-06-19T13:37:27;5.68;;;3.80;;
70920;SDS011;58572;48.110;19.838;2023-06-19T13:39:55;5.53;;;4.05;;
70920;SDS011;58572;48.110;19.838;2023-06-19T13:44:51;6.43;;;4.03;;
70920;SDS011;58572;48.110;19.838;2023-06-19T13:47:18;5.30;;;3.92;;
70920;SDS011;58572;48.110;19.838;2023-06-19T13:49:46;5.72;;;4.10;;
70920;SDS011;58572;48.110;19.838;2023-06-19T13:52:13;7.55;;;4.03;;
70920;SDS011;58572;48.110;19.838;2023-06-19T13:54:40;6.03;;;4.25;;
70920;SDS011;58572;48.110;19.838;2023-06-19T13:57:07;6.57;;;4.10;;
70920;SDS011;58572;48.110;19.838;2023-06-19T13:59:36;6.65;;;3.95;;
70920;SDS011;58572;48.110;19.838;2023-06-19T14:02:03;6.10;;;3.83;;
70920;SDS011;58572;48.110;19.838;2023-06-19T14:04:31;5.57;;;3.88;;
70920;SDS011;58572;48.110;19.838;2023-06-19T14:06:58;5.25;;;3.70;;
70920;SDS011;58572;48.110;19.838;2023-06-19T14:09:25;6.65;;;4.10;;
70920;SDS011;58572;48.110;19.838;2023-06-19T14:11:52;5.90;;;4.13;;
70920;SDS011;58572;48.110;19.838;2023-06-19T14:14:20;6.68;;;3.90;;
70920;SDS011;58572;48.110;19.838;2023-06-19T14:16:48;6.90;;;3.97;;
70920;SDS011;58572;48.110;19.838;2023-06-19T14:19:15;6.00;;;4.00;;
70920;SDS011;58572;48.110;19.838;2023-06-19T14:21:43;6.35;;;4.63;;
70920;SDS011;58572;48.110;19.838;2023-06-19T14:24:10;5.25;;;3.80;;
70920;SDS011;58572;48.110;19.838;2023-06-19T14:26:37;5.82;;;3.95;;
70920;SDS011;58572;48.110;19.838;2023-06-19T14:29:05;6.93;;;4.10;;
70920;SDS011;58572;48.110;19.838;2023-06-19T14:31:33;5.53;;;3.65;;
70920;SDS011;58572;48.110;19.838;2023-06-19T14:34:02;6.68;;;4.18;;
70920;SDS011;58572;48.110;19.838;2023-06-19T14:36:29;5.95;;;4.00;;
70920;SDS011;58572;48.110;19.838;2023-06-19T14:38:56;5.35;;;3.75;;
70920;SDS011;58572;48.110;19.838;2023-06-19T14:41:23;6.57;;;3.72;;
70920;SDS011;58572;48.110;19.838;2023-06-19T14:43:51;7.95;;;4.03;;
70920;SDS011;58572;48.110;19.838;2023-06-19T14:46:18;5.93;;;3.88;;
70920;SDS011;58572;48.110;19.838;2023-06-19T14:48:45;5.35;;;3.80;;
70920;SDS011;58572;48.110;19.838;2023-06-19T14:51:14;7.70;;;4.20;;
70920;SDS011;58572;48.110;19.838;2023-06-19T14:53:41;5.38;;;3.97;;
70920;SDS011;58572;48.110;19.838;2023-06-19T14:56:08;5.78;;;3.53;;
70920;SDS011;58572;48.110;19.838;2023-06-19T14:58:35;6.30;;;4.00;;
70920;SDS011;58572;48.110;19.838;2023-06-19T15:01:03;5.85;;;4.20;;
70920;SDS011;58572;48.110;19.838;2023-06-19T15:03:30;6.50;;;4.30;;
70920;SDS011;58572;48.110;19.838;2023-06-19T15:05:57;5.97;;;4.35;;
70920;SDS011;58572;48.110;19.838;2023-06-19T15:08:26;6.88;;;4.03;;
70920;SDS011;58572;48.110;19.838;2023-06-19T15:10:53;6.43;;;3.90;;
70920;SDS011;58572;48.110;19.838;2023-06-19T15:13:20;6.38;;;3.88;;
70920;SDS011;58572;48.110;19.838;2023-06-19T15:15:47;9.20;;;4.43;;
70920;SDS011;58572;48.110;19.838;2023-06-19T15:18:16;7.95;;;3.95;;
70920;SDS011;58572;48.110;19.838;2023-06-19T15:20:43;5.13;;;4.10;;
70920;SDS011;58572;48.110;19.838;2023-06-19T15:23:10;10.20;;;3.90;;
70920;SDS011;58572;48.110;19.838;2023-06-19T15:25:39;7.13;;;3.83;;
70920;SDS011;58572;48.110;19.838;2023-06-19T15:28:06;7.43;;;4.57;;
70920;SDS011;58572;48.110;19.838;2023-06-19T15:30:33;5.78;;;3.75;;
70920;SDS011;58572;48.110;19.838;2023-06-19T15:33:01;5.70;;;3.97;;
70920;SDS011;58572;48.110;19.838;2023-06-19T15:35:28;5.63;;;3.70;;